sensor_id;sensor_type;location;lat;lon;timestamp;temperature;humidity
28548;DHT22;15750;49.600;8.746;2023-02-14T00:00:02;13.70;45.50
28548;DHT22;15750;49.600;8.746;2023-02-14T00:02:34;13.70;45.60
28548;DHT22;15750;49.600;8.746;2023-02-14T00:05:05;13.60;45.50
28548;DHT22;15750;49.600;8.746;2023-02-14T00:07:34;13.60;45.50
28548;DHT22;15750;49.600;8.746;2023-02-14T00:10:02;13.60;45.60
28548;DHT22;15750;49.600;8.746;2023-02-14T00:12:31;13.60;45.50
28548;DHT22;15750;49.600;8.746;2023-02-14T00:15:00;13.60;45.50
28548;DHT22;15750;49.600;8.746;2023-02-14T00:17:46;13.50;45.50
28548;DHT22;15750;49.600;8.746;2023-02-14T00:20:16;13.50;45.50
28548;DHT22;15750;49.600;8.746;2023-02-14T00:22:45;13.50;45.50
28548;DHT22;15750;49.600;8.746;2023-02-14T00:25:14;13.50;45.60
28548;DHT22;15750;49.600;8.746;2023-02-14T00:27:43;13.50;45.50
28548;DHT22;15750;49.600;8.746;2023-02-14T00:30:13;13.50;45.50
28548;DHT22;15750;49.600;8.746;2023-02-14T00:32:42;13.40;45.40
28548;DHT22;15750;49.600;8.746;2023-02-14T00:35:11;13.40;45.50
28548;DHT22;15750;49.600;8.746;2023-02-14T00:37:41;13.40;45.50
28548;DHT22;15750;49.600;8.746;2023-02-14T00:40:11;13.40;45.50
28548;DHT22;15750;49.600;8.746;2023-02-14T00:42:40;13.40;45.40
28548;DHT22;15750;49.600;8.746;2023-02-14T00:45:09;13.40;45.40
28548;DHT22;15750;49.600;8.746;2023-02-14T00:47:37;13.40;45.40
28548;DHT22;15750;49.600;8.746;2023-02-14T00:50:07;13.40;45.30
28548;DHT22;15750;49.600;8.746;2023-02-14T00:52:36;13.40;45.30
28548;DHT22;15750;49.600;8.746;2023-02-14T00:55:06;13.40;45.20
28548;DHT22;15750;49.600;8.746;2023-02-14T00:57:35;13.40;45.20
28548;DHT22;15750;49.600;8.746;2023-02-14T01:00:05;13.30;45.20
28548;DHT22;15750;49.600;8.746;2023-02-14T01:02:34;13.30;45.00
28548;DHT22;15750;49.600;8.746;2023-02-14T01:05:03;13.30;45.00
28548;DHT22;15750;49.600;8.746;2023-02-14T01:07:33;13.30;45.00
28548;DHT22;15750;49.600;8.746;2023-02-14T01:10:02;13.30;45.00
28548;DHT22;15750;49.600;8.746;2023-02-14T01:12:32;13.30;44.90
28548;DHT22;15750;49.600;8.746;2023-02-14T01:15:01;13.20;44.70
28548;DHT22;15750;49.600;8.746;2023-02-14T01:17:30;13.20;44.80
28548;DHT22;15750;49.600;8.746;2023-02-14T01:19:59;13.20;44.90
28548;DHT22;15750;49.600;8.746;2023-02-14T01:22:30;13.20;44.90
28548;DHT22;15750;49.600;8.746;2023-02-14T01:25:02;13.10;44.90
28548;DHT22;15750;49.600;8.746;2023-02-14T01:27:33;13.10;45.00
28548;DHT22;15750;49.600;8.746;2023-02-14T01:30:01;13.10;44.80
28548;DHT22;15750;49.600;8.746;2023-02-14T01:32:31;13.10;44.90
28548;DHT22;15750;49.600;8.746;2023-02-14T01:34:59;13.00;44.90
28548;DHT22;15750;49.600;8.746;2023-02-14T01:37:28;13.10;45.00
28548;DHT22;15750;49.600;8.746;2023-02-14T01:39:58;13.00;45.00
28548;DHT22;15750;49.600;8.746;2023-02-14T01:42:28;13.00;45.00
28548;DHT22;15750;49.600;8.746;2023-02-14T01:45:00;13.00;45.00
28548;DHT22;15750;49.600;8.746;2023-02-14T01:47:33;13.00;44.90
28548;DHT22;15750;49.600;8.746;2023-02-14T01:50:09;13.00;44.90
28548;DHT22;15750;49.600;8.746;2023-02-14T01:52:42;13.00;44.80
28548;DHT22;15750;49.600;8.746;2023-02-14T01:55:16;13.00;44.80
28548;DHT22;15750;49.600;8.746;2023-02-14T01:57:50;13.00;44.70
28548;DHT22;15750;49.600;8.746;2023-02-14T02:00:22;13.00;44.50
28548;DHT22;15750;49.600;8.746;2023-02-14T02:03:10;13.00;44.50
28548;DHT22;15750;49.600;8.746;2023-02-14T02:05:42;13.00;44.60
28548;DHT22;15750;49.600;8.746;2023-02-14T02:08:14;12.90;44.50
28548;DHT22;15750;49.600;8.746;2023-02-14T02:10:43;12.90;44.60
28548;DHT22;15750;49.600;8.746;2023-02-14T02:13:15;12.90;44.50
28548;DHT22;15750;49.600;8.746;2023-02-14T02:15:57;12.90;44.40
28548;DHT22;15750;49.600;8.746;2023-02-14T02:18:44;12.90;44.30
28548;DHT22;15750;49.600;8.746;2023-02-14T02:24:37;12.90;44.20
28548;DHT22;15750;49.600;8.746;2023-02-14T02:30:38;12.80;44.30
28548;DHT22;15750;49.600;8.746;2023-02-14T02:33:43;12.80;44.30
28548;DHT22;15750;49.600;8.746;2023-02-14T02:40:15;12.80;44.30
28548;DHT22;15750;49.600;8.746;2023-02-14T02:42:57;12.80;44.30
28548;DHT22;15750;49.600;8.746;2023-02-14T02:45:40;12.80;44.40
28548;DHT22;15750;49.600;8.746;2023-02-14T02:48:33;12.80;44.30
28548;DHT22;15750;49.600;8.746;2023-02-14T02:51:09;12.70;44.20
28548;DHT22;15750;49.600;8.746;2023-02-14T02:54:03;12.70;44.30
28548;DHT22;15750;49.600;8.746;2023-02-14T02:56:40;12.70;44.30
28548;DHT22;15750;49.600;8.746;2023-02-14T02:59:20;12.70;44.30
28548;DHT22;15750;49.600;8.746;2023-02-14T03:01:57;12.70;44.40
28548;DHT22;15750;49.600;8.746;2023-02-14T03:04:31;12.70;44.40
28548;DHT22;15750;49.600;8.746;2023-02-14T03:07:19;12.70;44.40
28548;DHT22;15750;49.600;8.746;2023-02-14T03:10:14;12.60;44.50
28548;DHT22;15750;49.600;8.746;2023-02-14T03:13:01;12.60;44.30
28548;DHT22;15750;49.600;8.746;2023-02-14T03:15:52;12.60;44.10
28548;DHT22;15750;49.600;8.746;2023-02-14T03:18:37;12.60;44.00
28548;DHT22;15750;49.600;8.746;2023-02-14T03:21:17;12.60;44.10
28548;DHT22;15750;49.600;8.746;2023-02-14T03:23:55;12.60;44.10
28548;DHT22;15750;49.600;8.746;2023-02-14T03:26:33;12.60;44.10
28548;DHT22;15750;49.600;8.746;2023-02-14T03:29:10;12.50;44.00
28548;DHT22;15750;49.600;8.746;2023-02-14T03:31:45;12.50;44.10
28548;DHT22;15750;49.600;8.746;2023-02-14T03:34:26;12.50;44.10
28548;DHT22;15750;49.600;8.746;2023-02-14T03:37:02;12.50;44.20
28548;DHT22;15750;49.600;8.746;2023-02-14T03:39:40;12.50;44.20
28548;DHT22;15750;49.600;8.746;2023-02-14T03:42:17;12.50;44.20
28548;DHT22;15750;49.600;8.746;2023-02-14T03:44:49;12.50;44.20
28548;DHT22;15750;49.600;8.746;2023-02-14T03:47:22;12.50;44.30
28548;DHT22;15750;49.600;8.746;2023-02-14T03:49:55;12.50;44.20
28548;DHT22;15750;49.600;8.746;2023-02-14T03:52:26;12.50;44.20
28548;DHT22;15750;49.600;8.746;2023-02-14T03:54:57;12.50;44.20
28548;DHT22;15750;49.600;8.746;2023-02-14T03:57:33;12.50;44.10
28548;DHT22;15750;49.600;8.746;2023-02-14T04:00:06;12.50;44.00
28548;DHT22;15750;49.600;8.746;2023-02-14T04:02:42;12.50;44.10
28548;DHT22;15750;49.600;8.746;2023-02-14T04:05:15;12.50;44.00
28548;DHT22;15750;49.600;8.746;2023-02-14T04:07:48;12.50;44.00
28548;DHT22;15750;49.600;8.746;2023-02-14T04:10:19;12.50;44.10
28548;DHT22;15750;49.600;8.746;2023-02-14T04:12:51;12.40;44.10
28548;DHT22;15750;49.600;8.746;2023-02-14T04:15:20;12.40;44.00
28548;DHT22;15750;49.600;8.746;2023-02-14T04:17:48;12.40;44.00
28548;DHT22;15750;49.600;8.746;2023-02-14T04:20:34;12.40;44.00
28548;DHT22;15750;49.600;8.746;2023-02-14T04:23:03;12.40;44.00
28548;DHT22;15750;49.600;8.746;2023-02-14T04:25:32;12.40;43.90
28548;DHT22;15750;49.600;8.746;2023-02-14T04:28:02;12.40;43.90
28548;DHT22;15750;49.600;8.746;2023-02-14T04:30:31;12.40;43.70
28548;DHT22;15750;49.600;8.746;2023-02-14T04:33:00;12.30;43.80
28548;DHT22;15750;49.600;8.746;2023-02-14T04:35:29;12.40;43.90
28548;DHT22;15750;49.600;8.746;2023-02-14T04:37:58;12.30;43.70
28548;DHT22;15750;49.600;8.746;2023-02-14T04:40:26;12.30;43.80
28548;DHT22;15750;49.600;8.746;2023-02-14T04:42:55;12.30;43.80
28548;DHT22;15750;49.600;8.746;2023-02-14T04:45:26;12.30;43.80
28548;DHT22;15750;49.600;8.746;2023-02-14T04:47:54;12.30;43.80
28548;DHT22;15750;49.600;8.746;2023-02-14T04:50:23;12.30;43.90
28548;DHT22;15750;49.600;8.746;2023-02-14T04:52:52;12.30;44.00
28548;DHT22;15750;49.600;8.746;2023-02-14T04:55:21;12.20;43.90
28548;DHT22;15750;49.600;8.746;2023-02-14T04:57:50;12.20;43.90
28548;DHT22;15750;49.600;8.746;2023-02-14T05:00:19;12.20;43.90
28548;DHT22;15750;49.600;8.746;2023-02-14T05:02:49;12.20;44.00
28548;DHT22;15750;49.600;8.746;2023-02-14T05:05:18;12.20;43.90
28548;DHT22;15750;49.600;8.746;2023-02-14T05:07:47;12.20;44.00
28548;DHT22;15750;49.600;8.746;2023-02-14T05:10:15;12.20;44.00
28548;DHT22;15750;49.600;8.746;2023-02-14T05:12:44;12.20;44.00
28548;DHT22;15750;49.600;8.746;2023-02-14T05:15:13;12.20;44.00
28548;DHT22;15750;49.600;8.746;2023-02-14T05:17:42;12.20;44.10
28548;DHT22;15750;49.600;8.746;2023-02-14T05:20:12;12.20;44.10
28548;DHT22;15750;49.600;8.746;2023-02-14T05:22:41;12.20;44.00
28548;DHT22;15750;49.600;8.746;2023-02-14T05:25:09;12.20;44.00
28548;DHT22;15750;49.600;8.746;2023-02-14T05:27:38;12.20;44.00
28548;DHT22;15750;49.600;8.746;2023-02-14T05:30:08;12.20;44.00
28548;DHT22;15750;49.600;8.746;2023-02-14T05:32:38;12.30;43.80
28548;DHT22;15750;49.600;8.746;2023-02-14T05:35:07;12.30;43.90
28548;DHT22;15750;49.600;8.746;2023-02-14T05:37:37;12.30;43.80
28548;DHT22;15750;49.600;8.746;2023-02-14T05:40:07;12.30;43.60
28548;DHT22;15750;49.600;8.746;2023-02-14T05:42:39;12.20;43.60
28548;DHT22;15750;49.600;8.746;2023-02-14T05:45:09;12.30;43.70
28548;DHT22;15750;49.600;8.746;2023-02-14T05:47:38;12.20;43.60
28548;DHT22;15750;49.600;8.746;2023-02-14T05:50:08;12.20;43.60
28548;DHT22;15750;49.600;8.746;2023-02-14T05:52:38;12.20;43.60
28548;DHT22;15750;49.600;8.746;2023-02-14T05:55:08;12.20;44.10
28548;DHT22;15750;49.600;8.746;2023-02-14T05:57:37;12.20;43.50
28548;DHT22;15750;49.600;8.746;2023-02-14T06:00:07;12.10;43.40
28548;DHT22;15750;49.600;8.746;2023-02-14T06:02:39;12.10;43.40
28548;DHT22;15750;49.600;8.746;2023-02-14T06:05:08;12.10;43.40
28548;DHT22;15750;49.600;8.746;2023-02-14T06:07:38;12.10;43.40
28548;DHT22;15750;49.600;8.746;2023-02-14T06:10:09;12.10;43.30
28548;DHT22;15750;49.600;8.746;2023-02-14T06:12:38;12.10;43.50
28548;DHT22;15750;49.600;8.746;2023-02-14T06:15:07;12.10;43.40
28548;DHT22;15750;49.600;8.746;2023-02-14T06:17:36;12.10;43.50
28548;DHT22;15750;49.600;8.746;2023-02-14T06:20:06;12.10;43.50
28548;DHT22;15750;49.600;8.746;2023-02-14T06:22:38;12.10;43.30
28548;DHT22;15750;49.600;8.746;2023-02-14T06:25:07;12.10;43.30
28548;DHT22;15750;49.600;8.746;2023-02-14T06:27:35;12.10;43.20
28548;DHT22;15750;49.600;8.746;2023-02-14T06:30:05;12.10;43.10
28548;DHT22;15750;49.600;8.746;2023-02-14T06:32:35;12.00;43.00
28548;DHT22;15750;49.600;8.746;2023-02-14T06:35:04;12.00;43.00
28548;DHT22;15750;49.600;8.746;2023-02-14T06:37:33;12.00;43.00
28548;DHT22;15750;49.600;8.746;2023-02-14T06:40:04;12.00;43.00
28548;DHT22;15750;49.600;8.746;2023-02-14T06:42:33;12.00;43.00
28548;DHT22;15750;49.600;8.746;2023-02-14T06:45:03;11.90;43.00
28548;DHT22;15750;49.600;8.746;2023-02-14T06:47:32;11.90;43.10
28548;DHT22;15750;49.600;8.746;2023-02-14T06:50:01;11.90;43.20
28548;DHT22;15750;49.600;8.746;2023-02-14T06:52:31;11.90;43.30
28548;DHT22;15750;49.600;8.746;2023-02-14T06:55:00;11.80;43.20
28548;DHT22;15750;49.600;8.746;2023-02-14T06:57:30;11.80;43.20
28548;DHT22;15750;49.600;8.746;2023-02-14T06:59:59;11.80;43.20
28548;DHT22;15750;49.600;8.746;2023-02-14T07:02:27;11.80;43.40
28548;DHT22;15750;49.600;8.746;2023-02-14T07:04:56;11.80;43.60
28548;DHT22;15750;49.600;8.746;2023-02-14T07:07:25;11.80;43.60
28548;DHT22;15750;49.600;8.746;2023-02-14T07:09:53;11.80;43.70
28548;DHT22;15750;49.600;8.746;2023-02-14T07:12:22;11.70;43.70
28548;DHT22;15750;49.600;8.746;2023-02-14T07:14:52;11.80;43.70
28548;DHT22;15750;49.600;8.746;2023-02-14T07:17:21;11.80;43.60
28548;DHT22;15750;49.600;8.746;2023-02-14T07:19:49;11.80;43.80
28548;DHT22;15750;49.600;8.746;2023-02-14T07:22:18;11.80;43.80
28548;DHT22;15750;49.600;8.746;2023-02-14T07:24:46;11.80;43.80
28548;DHT22;15750;49.600;8.746;2023-02-14T07:27:15;11.80;43.80
28548;DHT22;15750;49.600;8.746;2023-02-14T07:29:44;11.80;43.80
28548;DHT22;15750;49.600;8.746;2023-02-14T07:32:14;11.80;43.80
28548;DHT22;15750;49.600;8.746;2023-02-14T07:34:43;11.80;43.80
28548;DHT22;15750;49.600;8.746;2023-02-14T07:37:11;11.80;43.90
28548;DHT22;15750;49.600;8.746;2023-02-14T07:39:40;11.80;43.90
28548;DHT22;15750;49.600;8.746;2023-02-14T07:42:09;11.80;43.90
28548;DHT22;15750;49.600;8.746;2023-02-14T07:44:38;11.90;44.00
28548;DHT22;15750;49.600;8.746;2023-02-14T07:47:08;11.90;44.00
28548;DHT22;15750;49.600;8.746;2023-02-14T07:49:38;11.90;44.00
28548;DHT22;15750;49.600;8.746;2023-02-14T07:52:07;11.90;43.90
28548;DHT22;15750;49.600;8.746;2023-02-14T07:54:36;12.00;44.00
28548;DHT22;15750;49.600;8.746;2023-02-14T07:57:05;12.00;44.00
28548;DHT22;15750;49.600;8.746;2023-02-14T07:59:34;12.00;43.90
28548;DHT22;15750;49.600;8.746;2023-02-14T08:02:03;12.00;43.90
28548;DHT22;15750;49.600;8.746;2023-02-14T08:04:31;12.10;44.00
28548;DHT22;15750;49.600;8.746;2023-02-14T08:07:02;12.10;43.90
28548;DHT22;15750;49.600;8.746;2023-02-14T08:09:30;12.10;43.80
28548;DHT22;15750;49.600;8.746;2023-02-14T08:11:59;12.10;43.90
28548;DHT22;15750;49.600;8.746;2023-02-14T08:14:45;12.10;43.90
28548;DHT22;15750;49.600;8.746;2023-02-14T08:17:14;12.10;44.00
28548;DHT22;15750;49.600;8.746;2023-02-14T08:19:42;12.20;44.00
28548;DHT22;15750;49.600;8.746;2023-02-14T08:22:12;12.20;44.10
28548;DHT22;15750;49.600;8.746;2023-02-14T08:24:44;12.20;44.10
28548;DHT22;15750;49.600;8.746;2023-02-14T08:27:13;12.20;44.20
28548;DHT22;15750;49.600;8.746;2023-02-14T08:29:41;12.20;44.20
28548;DHT22;15750;49.600;8.746;2023-02-14T08:32:10;12.30;44.30
28548;DHT22;15750;49.600;8.746;2023-02-14T08:34:39;12.30;44.30
28548;DHT22;15750;49.600;8.746;2023-02-14T08:37:07;12.40;44.40
28548;DHT22;15750;49.600;8.746;2023-02-14T08:39:37;12.40;44.40
28548;DHT22;15750;49.600;8.746;2023-02-14T08:42:06;12.40;44.50
28548;DHT22;15750;49.600;8.746;2023-02-14T08:44:35;12.40;44.50
28548;DHT22;15750;49.600;8.746;2023-02-14T08:47:04;12.40;44.50
28548;DHT22;15750;49.600;8.746;2023-02-14T08:49:33;12.50;44.60
28548;DHT22;15750;49.600;8.746;2023-02-14T08:52:01;12.50;44.60
28548;DHT22;15750;49.600;8.746;2023-02-14T08:54:30;12.50;44.60
28548;DHT22;15750;49.600;8.746;2023-02-14T08:57:00;12.50;44.70
28548;DHT22;15750;49.600;8.746;2023-02-14T08:59:29;12.60;44.80
28548;DHT22;15750;49.600;8.746;2023-02-14T09:01:58;12.60;44.80
28548;DHT22;15750;49.600;8.746;2023-02-14T09:04:26;12.60;44.90
28548;DHT22;15750;49.600;8.746;2023-02-14T09:06:55;12.60;44.90
28548;DHT22;15750;49.600;8.746;2023-02-14T09:09:24;12.70;45.00
28548;DHT22;15750;49.600;8.746;2023-02-14T09:11:52;12.70;45.00
28548;DHT22;15750;49.600;8.746;2023-02-14T09:14:23;12.70;45.00
28548;DHT22;15750;49.600;8.746;2023-02-14T09:16:52;12.80;45.20
28548;DHT22;15750;49.600;8.746;2023-02-14T09:19:21;12.80;45.10
28548;DHT22;15750;49.600;8.746;2023-02-14T09:21:49;12.80;45.20
28548;DHT22;15750;49.600;8.746;2023-02-14T09:24:18;12.90;45.20
28548;DHT22;15750;49.600;8.746;2023-02-14T09:26:47;12.90;45.30
28548;DHT22;15750;49.600;8.746;2023-02-14T09:29:15;12.90;45.30
28548;DHT22;15750;49.600;8.746;2023-02-14T09:31:46;13.00;45.40
28548;DHT22;15750;49.600;8.746;2023-02-14T09:34:14;13.00;45.40
28548;DHT22;15750;49.600;8.746;2023-02-14T09:36:43;13.00;45.40
28548;DHT22;15750;49.600;8.746;2023-02-14T09:39:32;13.10;45.50
28548;DHT22;15750;49.600;8.746;2023-02-14T09:42:09;13.10;45.50
28548;DHT22;15750;49.600;8.746;2023-02-14T09:44:49;13.20;45.60
28548;DHT22;15750;49.600;8.746;2023-02-14T09:47:32;13.20;45.60
28548;DHT22;15750;49.600;8.746;2023-02-14T09:50:03;13.30;45.60
28548;DHT22;15750;49.600;8.746;2023-02-14T09:52:34;13.30;45.60
28548;DHT22;15750;49.600;8.746;2023-02-14T09:55:05;13.30;45.70
28548;DHT22;15750;49.600;8.746;2023-02-14T09:57:45;13.40;45.70
28548;DHT22;15750;49.600;8.746;2023-02-14T10:00:33;13.40;45.80
28548;DHT22;15750;49.600;8.746;2023-02-14T10:09:54;13.60;45.90
28548;DHT22;15750;49.600;8.746;2023-02-14T10:12:30;13.70;45.90
28548;DHT22;15750;49.600;8.746;2023-02-14T10:15:05;13.70;45.80
28548;DHT22;15750;49.600;8.746;2023-02-14T10:17:38;13.70;45.80
28548;DHT22;15750;49.600;8.746;2023-02-14T10:20:20;13.80;45.90
28548;DHT22;15750;49.600;8.746;2023-02-14T10:22:56;13.80;45.90
28548;DHT22;15750;49.600;8.746;2023-02-14T10:25:35;13.90;46.00
28548;DHT22;15750;49.600;8.746;2023-02-14T10:28:11;13.90;46.00
28548;DHT22;15750;49.600;8.746;2023-02-14T10:30:50;13.90;46.30
28548;DHT22;15750;49.600;8.746;2023-02-14T10:33:24;14.00;46.00
28548;DHT22;15750;49.600;8.746;2023-02-14T10:36:03;14.00;46.00
28548;DHT22;15750;49.600;8.746;2023-02-14T10:38:38;14.00;46.00
28548;DHT22;15750;49.600;8.746;2023-02-14T10:41:25;14.10;46.00
28548;DHT22;15750;49.600;8.746;2023-02-14T10:44:12;14.10;45.90
28548;DHT22;15750;49.600;8.746;2023-02-14T10:46:52;14.10;45.90
28548;DHT22;15750;49.600;8.746;2023-02-14T10:49:30;14.20;45.90
28548;DHT22;15750;49.600;8.746;2023-02-14T10:52:15;14.20;45.90
28548;DHT22;15750;49.600;8.746;2023-02-14T10:54:52;14.20;45.90
28548;DHT22;15750;49.600;8.746;2023-02-14T10:57:26;14.20;45.90
28548;DHT22;15750;49.600;8.746;2023-02-14T11:00:00;14.30;45.90
28548;DHT22;15750;49.600;8.746;2023-02-14T11:02:33;14.30;45.90
28548;DHT22;15750;49.600;8.746;2023-02-14T11:05:04;14.30;45.90
28548;DHT22;15750;49.600;8.746;2023-02-14T11:07:35;14.30;46.00
28548;DHT22;15750;49.600;8.746;2023-02-14T11:10:09;14.40;46.00
28548;DHT22;15750;49.600;8.746;2023-02-14T11:12:40;14.40;46.00
28548;DHT22;15750;49.600;8.746;2023-02-14T11:15:17;14.40;46.00
28548;DHT22;15750;49.600;8.746;2023-02-14T11:17:50;14.40;45.90
28548;DHT22;15750;49.600;8.746;2023-02-14T11:20:36;14.40;45.90
28548;DHT22;15750;49.600;8.746;2023-02-14T11:23:19;14.50;46.00
28548;DHT22;15750;49.600;8.746;2023-02-14T11:26:18;14.50;46.00
28548;DHT22;15750;49.600;8.746;2023-02-14T11:28:54;14.50;45.90
28548;DHT22;15750;49.600;8.746;2023-02-14T11:31:27;14.50;45.90
28548;DHT22;15750;49.600;8.746;2023-02-14T11:33:57;14.50;46.00
28548;DHT22;15750;49.600;8.746;2023-02-14T11:36:31;14.50;45.90
28548;DHT22;15750;49.600;8.746;2023-02-14T11:39:09;14.60;45.90
28548;DHT22;15750;49.600;8.746;2023-02-14T11:41:49;14.60;46.00
28548;DHT22;15750;49.600;8.746;2023-02-14T11:44:21;14.60;46.00
28548;DHT22;15750;49.600;8.746;2023-02-14T11:46:51;14.60;46.10
28548;DHT22;15750;49.600;8.746;2023-02-14T11:49:25;14.60;46.10
28548;DHT22;15750;49.600;8.746;2023-02-14T11:51:57;14.60;46.20
28548;DHT22;15750;49.600;8.746;2023-02-14T11:54:34;14.60;46.20
28548;DHT22;15750;49.600;8.746;2023-02-14T11:57:06;14.60;46.30
28548;DHT22;15750;49.600;8.746;2023-02-14T11:59:40;14.60;46.30
28548;DHT22;15750;49.600;8.746;2023-02-14T12:02:20;14.60;46.30
28548;DHT22;15750;49.600;8.746;2023-02-14T12:04:54;14.60;46.30
28548;DHT22;15750;49.600;8.746;2023-02-14T12:07:28;14.60;46.40
28548;DHT22;15750;49.600;8.746;2023-02-14T12:10:18;14.70;46.40
28548;DHT22;15750;49.600;8.746;2023-02-14T12:13:18;14.70;46.50
28548;DHT22;15750;49.600;8.746;2023-02-14T12:15:52;14.70;46.50
28548;DHT22;15750;49.600;8.746;2023-02-14T12:18:42;14.70;46.40
28548;DHT22;15750;49.600;8.746;2023-02-14T12:21:43;14.70;46.50
28548;DHT22;15750;49.600;8.746;2023-02-14T12:24:19;14.70;46.50
28548;DHT22;15750;49.600;8.746;2023-02-14T12:27:03;14.70;46.40
28548;DHT22;15750;49.600;8.746;2023-02-14T12:29:40;14.70;46.50
28548;DHT22;15750;49.600;8.746;2023-02-14T12:32:18;14.70;46.30
28548;DHT22;15750;49.600;8.746;2023-02-14T12:34:49;14.70;46.50
28548;DHT22;15750;49.600;8.746;2023-02-14T12:37:34;14.70;46.40
28548;DHT22;15750;49.600;8.746;2023-02-14T12:40:11;14.70;46.50
28548;DHT22;15750;49.600;8.746;2023-02-14T12:46:05;14.80;47.20
28548;DHT22;15750;49.600;8.746;2023-02-14T12:48:52;14.70;46.50
28548;DHT22;15750;49.600;8.746;2023-02-14T12:51:46;14.70;46.40
28548;DHT22;15750;49.600;8.746;2023-02-14T12:54:31;14.80;46.40
28548;DHT22;15750;49.600;8.746;2023-02-14T12:57:20;14.70;46.40
28548;DHT22;15750;49.600;8.746;2023-02-14T13:00:05;14.70;46.40
28548;DHT22;15750;49.600;8.746;2023-02-14T13:06:12;14.70;46.50
28548;DHT22;15750;49.600;8.746;2023-02-14T13:09:04;14.70;46.40
28548;DHT22;15750;49.600;8.746;2023-02-14T13:11:51;14.70;46.50
28548;DHT22;15750;49.600;8.746;2023-02-14T13:14:40;14.70;46.60
28548;DHT22;15750;49.600;8.746;2023-02-14T13:17:23;14.70;46.50
28548;DHT22;15750;49.600;8.746;2023-02-14T13:20:02;14.70;46.50
28548;DHT22;15750;49.600;8.746;2023-02-14T13:22:40;14.70;46.50
28548;DHT22;15750;49.600;8.746;2023-02-14T13:25:19;14.70;46.50
28548;DHT22;15750;49.600;8.746;2023-02-14T13:27:58;14.70;46.60
28548;DHT22;15750;49.600;8.746;2023-02-14T13:30:29;14.70;46.50
28548;DHT22;15750;49.600;8.746;2023-02-14T13:33:05;14.70;46.40
28548;DHT22;15750;49.600;8.746;2023-02-14T13:35:36;14.80;46.50
28548;DHT22;15750;49.600;8.746;2023-02-14T13:38:06;14.70;46.40
28548;DHT22;15750;49.600;8.746;2023-02-14T13:40:40;14.80;46.50
28548;DHT22;15750;49.600;8.746;2023-02-14T13:43:09;14.70;46.40
28548;DHT22;15750;49.600;8.746;2023-02-14T13:45:54;14.70;46.40
28548;DHT22;15750;49.600;8.746;2023-02-14T13:48:25;14.70;46.50
28548;DHT22;15750;49.600;8.746;2023-02-14T13:50:56;14.70;46.40
28548;DHT22;15750;49.600;8.746;2023-02-14T13:53:39;14.70;46.40
28548;DHT22;15750;49.600;8.746;2023-02-14T13:56:31;14.70;46.50
28548;DHT22;15750;49.600;8.746;2023-02-14T13:59:03;14.70;46.40
28548;DHT22;15750;49.600;8.746;2023-02-14T14:01:36;14.70;46.40
28548;DHT22;15750;49.600;8.746;2023-02-14T14:04:34;14.70;46.40
28548;DHT22;15750;49.600;8.746;2023-02-14T14:07:22;14.70;46.40
28548;DHT22;15750;49.600;8.746;2023-02-14T14:10:00;14.70;47.10
28548;DHT22;15750;49.600;8.746;2023-02-14T14:12:51;14.70;46.30
28548;DHT22;15750;49.600;8.746;2023-02-14T14:15:20;14.60;46.40
28548;DHT22;15750;49.600;8.746;2023-02-14T14:21:22;14.60;46.40
28548;DHT22;15750;49.600;8.746;2023-02-14T14:24:20;14.70;46.40
28548;DHT22;15750;49.600;8.746;2023-02-14T14:26:51;14.60;46.40
28548;DHT22;15750;49.600;8.746;2023-02-14T14:29:28;14.60;46.30
28548;DHT22;15750;49.600;8.746;2023-02-14T14:32:07;14.60;46.30
28548;DHT22;15750;49.600;8.746;2023-02-14T14:34:36;14.60;46.40
28548;DHT22;15750;49.600;8.746;2023-02-14T14:37:15;14.60;46.30
28548;DHT22;15750;49.600;8.746;2023-02-14T14:39:50;14.60;46.30
28548;DHT22;15750;49.600;8.746;2023-02-14T14:42:20;14.60;46.30
28548;DHT22;15750;49.600;8.746;2023-02-14T14:44:51;14.60;46.30
28548;DHT22;15750;49.600;8.746;2023-02-14T14:47:24;14.50;46.30
28548;DHT22;15750;49.600;8.746;2023-02-14T14:49:59;14.50;46.30
28548;DHT22;15750;49.600;8.746;2023-02-14T14:52:37;14.50;46.30
28548;DHT22;15750;49.600;8.746;2023-02-14T14:55:17;14.50;46.30
28548;DHT22;15750;49.600;8.746;2023-02-14T14:57:50;14.50;46.30
28548;DHT22;15750;49.600;8.746;2023-02-14T15:00:22;14.50;46.30
28548;DHT22;15750;49.600;8.746;2023-02-14T15:03:03;14.50;46.30
28548;DHT22;15750;49.600;8.746;2023-02-14T15:05:35;14.50;46.30
28548;DHT22;15750;49.600;8.746;2023-02-14T15:08:22;14.50;46.30
28548;DHT22;15750;49.600;8.746;2023-02-14T15:11:00;14.50;46.40
28548;DHT22;15750;49.600;8.746;2023-02-14T15:13:35;14.50;46.30
28548;DHT22;15750;49.600;8.746;2023-02-14T15:16:22;14.40;46.30
28548;DHT22;15750;49.600;8.746;2023-02-14T15:18:56;14.40;46.30
28548;DHT22;15750;49.600;8.746;2023-02-14T15:21:27;14.40;47.00
28548;DHT22;15750;49.600;8.746;2023-02-14T15:23:57;14.40;46.30
28548;DHT22;15750;49.600;8.746;2023-02-14T15:26:27;14.40;46.30
28548;DHT22;15750;49.600;8.746;2023-02-14T15:28:58;14.40;46.30
28548;DHT22;15750;49.600;8.746;2023-02-14T15:31:30;14.40;46.30
28548;DHT22;15750;49.600;8.746;2023-02-14T15:34:00;14.40;46.30
28548;DHT22;15750;49.600;8.746;2023-02-14T15:36:32;14.30;46.30
28548;DHT22;15750;49.600;8.746;2023-02-14T15:39:05;14.40;46.20
28548;DHT22;15750;49.600;8.746;2023-02-14T15:41:35;14.40;46.30
28548;DHT22;15750;49.600;8.746;2023-02-14T15:44:21;14.30;46.20
28548;DHT22;15750;49.600;8.746;2023-02-14T15:46:54;14.30;46.30
28548;DHT22;15750;49.600;8.746;2023-02-14T15:49:30;14.30;46.20
28548;DHT22;15750;49.600;8.746;2023-02-14T15:52:02;14.30;46.20
28548;DHT22;15750;49.600;8.746;2023-02-14T15:54:36;14.30;46.20
28548;DHT22;15750;49.600;8.746;2023-02-14T15:57:14;14.30;46.30
28548;DHT22;15750;49.600;8.746;2023-02-14T15:59:46;14.20;46.20
28548;DHT22;15750;49.600;8.746;2023-02-14T16:02:26;14.20;46.20
28548;DHT22;15750;49.600;8.746;2023-02-14T16:05:05;14.20;46.30
28548;DHT22;15750;49.600;8.746;2023-02-14T16:07:35;14.20;46.30
28548;DHT22;15750;49.600;8.746;2023-02-14T16:10:20;14.20;46.20
28548;DHT22;15750;49.600;8.746;2023-02-14T16:12:58;14.20;46.30
28548;DHT22;15750;49.600;8.746;2023-02-14T16:15:29;14.10;46.30
28548;DHT22;15750;49.600;8.746;2023-02-14T16:17:59;14.10;46.30
28548;DHT22;15750;49.600;8.746;2023-02-14T16:20:40;14.10;46.30
28548;DHT22;15750;49.600;8.746;2023-02-14T16:23:30;14.10;46.30
28548;DHT22;15750;49.600;8.746;2023-02-14T16:26:01;14.10;46.30
28548;DHT22;15750;49.600;8.746;2023-02-14T16:28:31;14.10;46.30
28548;DHT22;15750;49.600;8.746;2023-02-14T16:31:04;14.10;46.30
28548;DHT22;15750;49.600;8.746;2023-02-14T16:33:37;14.10;46.40
28548;DHT22;15750;49.600;8.746;2023-02-14T16:36:14;14.10;46.30
28548;DHT22;15750;49.600;8.746;2023-02-14T16:38:45;14.00;46.30